PHEGM EDHL-EKRK

Flight info

Callsign PHEGM
Flight time 5h 1m
Altitude 4000
Route EHDLN EHDK SONDERBORG AABENRAA KOLDING HOLSTED EKEB GRINDSTED EKBI GIVE HERNING HOLSTEBRO EKSV VIBROG RANDERS EKAH AARHUS HORNING EK76 EKSS KALUNDBORG EKRK
Aircraft DA40/L-SDGRY/S

Departure

Time 2026-04-17 13:55
Airport Lübeck Blankensee Airport (EDHL)

Arrival

Time 2026-04-17 18:57
Airport Copenhagen Roskilde Airport (EKRK)
Time Latitude Longitude Altitude Speed Heading
2026-04-17 13:52 53.80518 10.70359 52 ft 11 kts 144°
2026-04-17 13:52 53.80471 10.70419 52 ft 11 kts 149°
2026-04-17 13:52 53.80421 10.70456 52 ft 5 kts 142°
2026-04-17 13:52 53.80419 10.70462 52 ft 0 kts 105°
2026-04-17 13:54 53.80327 10.70587 51 ft 14 kts 153°
2026-04-17 13:54 53.80294 10.70661 53 ft 3 kts 62°
2026-04-17 13:55 53.80423 10.71384 95 ft 70 kts 74°
2026-04-17 13:55 53.80548 10.72180 418 ft 66 kts 72°
2026-04-17 13:55 53.80855 10.73769 1020 ft 73 kts 72°
2026-04-17 13:56 53.81875 10.74283 1509 ft 92 kts
2026-04-17 13:56 53.82581 10.74343 1590 ft 106 kts
2026-04-17 13:56 53.83352 10.74432 1594 ft 114 kts
2026-04-17 13:57 53.84134 10.74522 1624 ft 115 kts
2026-04-17 13:57 53.84930 10.74836 1585 ft 117 kts 26°
2026-04-17 13:57 53.86466 10.75693 1541 ft 119 kts 18°
2026-04-17 13:58 53.87292 10.76038 1443 ft 126 kts 18°
2026-04-17 13:58 53.88904 10.76828 1448 ft 120 kts 19°
2026-04-17 13:58 53.89716 10.77194 1448 ft 118 kts 18°
2026-04-17 13:59 53.91349 10.76913 1451 ft 126 kts 347°
2026-04-17 13:59 53.92135 10.76290 1497 ft 122 kts 332°
2026-04-17 13:59 53.92854 10.75509 1468 ft 123 kts 329°
2026-04-17 14:00 53.93557 10.74656 1428 ft 125 kts 327°
2026-04-17 14:00 53.94263 10.73804 1436 ft 124 kts 328°
2026-04-17 14:00 53.94942 10.72884 1417 ft 125 kts 323°
2026-04-17 14:00 53.95610 10.71965 1420 ft 124 kts 325°
2026-04-17 14:01 53.96253 10.71080 1585 ft 110 kts 324°
2026-04-17 14:01 53.96794 10.70343 1919 ft 94 kts 324°
2026-04-17 14:01 53.97309 10.69641 2160 ft 96 kts 324°
2026-04-17 14:01 53.97828 10.68939 2416 ft 95 kts 322°
2026-04-17 14:02 53.98348 10.68250 2645 ft 95 kts 326°
2026-04-17 14:02 53.98868 10.67575 2880 ft 95 kts 324°
2026-04-17 14:02 53.99385 10.66883 3122 ft 94 kts 321°
2026-04-17 14:02 53.99900 10.66190 3358 ft 94 kts 321°
2026-04-17 14:03 54.00415 10.65498 3596 ft 94 kts 320°
2026-04-17 14:03 54.00930 10.64804 3826 ft 94 kts 319°
2026-04-17 14:03 54.01445 10.64114 4060 ft 94 kts 317°
2026-04-17 14:03 54.01960 10.63422 4283 ft 94 kts 316°
2026-04-17 14:04 54.02473 10.62733 4524 ft 94 kts 315°
2026-04-17 14:04 54.03010 10.62007 4611 ft 108 kts 319°
2026-04-17 14:04 54.03636 10.61185 4567 ft 120 kts 321°
2026-04-17 14:04 54.04330 10.60296 4482 ft 127 kts 319°
2026-04-17 14:05 54.05004 10.59366 4484 ft 125 kts 317°
2026-04-17 14:05 54.05683 10.58431 4481 ft 126 kts 318°
2026-04-17 14:05 54.06371 10.57495 4480 ft 127 kts 319°
2026-04-17 14:05 54.07067 10.56558 4479 ft 128 kts 320°
2026-04-17 14:06 54.07765 10.55616 4477 ft 128 kts 319°
2026-04-17 14:06 54.08465 10.54673 4477 ft 128 kts 318°
2026-04-17 14:06 54.09163 10.53731 4483 ft 128 kts 319°
2026-04-17 14:06 54.09868 10.52778 4368 ft 137 kts 318°
2026-04-17 14:07 54.10622 10.51716 4188 ft 137 kts 319°
2026-04-17 14:07 54.11368 10.50800 3995 ft 130 kts 327°
2026-04-17 14:07 54.12171 10.50100 3757 ft 131 kts 336°
2026-04-17 14:07 54.12978 10.49397 3561 ft 128 kts 326°
2026-04-17 14:08 54.13638 10.48512 3531 ft 117 kts 317°
2026-04-17 14:08 54.14271 10.47563 3473 ft 123 kts 319°
2026-04-17 14:08 54.14929 10.46614 3476 ft 124 kts 319°
2026-04-17 14:08 54.15597 10.45672 3475 ft 125 kts 320°
2026-04-17 14:09 54.16268 10.44739 3472 ft 126 kts 320°
2026-04-17 14:09 54.16947 10.43799 3473 ft 126 kts 320°
2026-04-17 14:09 54.17629 10.42855 3472 ft 126 kts 320°
2026-04-17 14:09 54.18313 10.41906 3469 ft 127 kts 320°
2026-04-17 14:10 54.19002 10.40952 3467 ft 127 kts 320°
2026-04-17 14:10 54.19678 10.40014 3467 ft 126 kts 320°
2026-04-17 14:10 54.20362 10.39065 3472 ft 126 kts 320°
2026-04-17 14:10 54.21044 10.38120 3473 ft 126 kts 320°
2026-04-17 14:11 54.21713 10.37190 3479 ft 126 kts 320°
2026-04-17 14:11 54.22391 10.36248 3479 ft 126 kts 320°
2026-04-17 14:11 54.23069 10.35305 3478 ft 126 kts 320°
2026-04-17 14:11 54.23748 10.34361 3477 ft 126 kts 320°
2026-04-17 14:12 54.24428 10.33415 3472 ft 126 kts 320°
2026-04-17 14:12 54.25104 10.32475 3472 ft 125 kts 320°
2026-04-17 14:12 54.25784 10.31528 3472 ft 126 kts 320°
2026-04-17 14:13 54.27141 10.29638 3487 ft 126 kts 320°
2026-04-17 14:13 54.27820 10.28691 3487 ft 125 kts 320°
2026-04-17 14:13 54.28500 10.27742 3491 ft 127 kts 320°
2026-04-17 14:13 54.29188 10.26783 3488 ft 127 kts 320°
2026-04-17 14:14 54.29870 10.25820 3475 ft 127 kts 319°
2026-04-17 14:14 54.30543 10.24822 3445 ft 128 kts 319°
2026-04-17 14:14 54.31215 10.23816 3404 ft 130 kts 319°
2026-04-17 14:14 54.31909 10.22832 3311 ft 133 kts 321°
2026-04-17 14:15 54.32640 10.21878 3192 ft 131 kts 323°
2026-04-17 14:15 54.33401 10.20979 2953 ft 136 kts 328°
2026-04-17 14:15 54.34221 10.20143 2800 ft 134 kts 330°
2026-04-17 14:15 54.34875 10.19013 2422 ft 133 kts 306°
2026-04-17 14:16 54.35419 10.17764 1935 ft 129 kts 309°
2026-04-17 14:16 54.35982 10.16646 1558 ft 120 kts 313°
2026-04-17 14:16 54.36503 10.15627 1363 ft 114 kts 314°
2026-04-17 14:16 54.37168 10.14834 1273 ft 119 kts 344°
2026-04-17 14:17 54.37875 10.14521 1172 ft 121 kts 351°
2026-04-17 14:17 54.38682 10.14222 1102 ft 110 kts 337°
2026-04-17 14:17 54.38947 10.13175 952 ft 99 kts 264°
2026-04-17 14:17 54.38835 10.12056 735 ft 93 kts 252°
2026-04-17 14:18 54.38374 10.11564 590 ft 78 kts 167°
2026-04-17 14:18 54.37862 10.11757 517 ft 71 kts 128°
2026-04-17 14:18 54.37799 10.12569 333 ft 72 kts 84°
2026-04-17 14:18 54.37866 10.13416 175 ft 71 kts 77°
2026-04-17 14:19 54.37928 10.14145 102 ft 48 kts 82°
2026-04-17 14:19 54.37975 10.14865 217 ft 67 kts 81°
2026-04-17 14:19 54.38039 10.15684 458 ft 73 kts 83°
2026-04-17 14:19 54.37893 10.16542 647 ft 90 kts 148°
2026-04-17 14:20 54.37264 10.16633 919 ft 93 kts 178°
2026-04-17 14:20 54.36749 10.15973 1035 ft 108 kts 262°
2026-04-17 14:20 54.36744 10.14659 1042 ft 114 kts 272°
2026-04-17 14:20 54.36718 10.13259 970 ft 113 kts 271°
2026-04-17 14:21 54.36792 10.12038 818 ft 95 kts 312°
2026-04-17 14:21 54.37316 10.11711 647 ft 75 kts 13°
2026-04-17 14:21 54.37725 10.12095 412 ft 72 kts 68°
2026-04-17 14:21 54.37822 10.12930 244 ft 69 kts 78°
2026-04-17 14:22 54.37888 10.13694 126 ft 60 kts 77°
2026-04-17 14:22 54.37940 10.14331 104 ft 65 kts 81°
2026-04-17 14:22 54.37997 10.15190 308 ft 74 kts 83°
2026-04-17 14:22 54.38060 10.16091 622 ft 76 kts 81°
2026-04-17 14:23 54.38399 10.16682 904 ft 80 kts 13°
2026-04-17 14:23 54.39011 10.16599 1044 ft 96 kts 354°
2026-04-17 14:23 54.39690 10.16358 1223 ft 104 kts 352°
2026-04-17 14:23 54.40369 10.15888 1406 ft 110 kts 324°
2026-04-17 14:24 54.40930 10.15017 1655 ft 105 kts 318°
2026-04-17 14:24 54.41465 10.14140 1846 ft 107 kts 322°
2026-04-17 14:24 54.42122 10.13488 1973 ft 112 kts 339°
2026-04-17 14:24 54.42917 10.12956 1898 ft 130 kts 341°
2026-04-17 14:25 54.43741 10.12428 1982 ft 128 kts 341°
2026-04-17 14:25 54.44613 10.11890 1986 ft 137 kts 341°
2026-04-17 14:25 54.45517 10.11323 1978 ft 140 kts 341°
2026-04-17 14:25 54.46438 10.10756 1979 ft 141 kts 342°
2026-04-17 14:26 54.47349 10.10185 1991 ft 144 kts 342°
2026-04-17 14:26 54.48273 10.09606 1986 ft 138 kts 341°
2026-04-17 14:26 54.49177 10.09046 1994 ft 139 kts 341°
2026-04-17 14:26 54.50091 10.08480 1987 ft 138 kts 341°
2026-04-17 14:27 54.50997 10.07938 1991 ft 138 kts 342°
2026-04-17 14:27 54.51895 10.07386 1986 ft 138 kts 341°
2026-04-17 14:27 54.52793 10.06820 1985 ft 136 kts 342°
2026-04-17 14:27 54.53690 10.06256 1990 ft 139 kts 342°
2026-04-17 14:28 54.54606 10.05685 1991 ft 140 kts 342°
2026-04-17 14:28 54.55518 10.05117 1986 ft 138 kts 342°
2026-04-17 14:28 54.56423 10.04560 1986 ft 137 kts 342°
2026-04-17 14:28 54.57306 10.04016 2008 ft 136 kts 342°
2026-04-17 14:29 54.58198 10.03475 2007 ft 136 kts 342°
2026-04-17 14:29 54.59095 10.02920 2004 ft 137 kts 342°
2026-04-17 14:29 54.59994 10.02359 2026 ft 139 kts 342°
2026-04-17 14:29 54.60908 10.01801 2008 ft 137 kts 342°
2026-04-17 14:30 54.61802 10.01252 2008 ft 137 kts 342°
2026-04-17 14:30 54.62678 10.00709 2020 ft 136 kts 342°
2026-04-17 14:30 54.63574 10.00175 2018 ft 138 kts 342°
2026-04-17 14:30 54.64480 9.99621 2011 ft 139 kts 342°
2026-04-17 14:31 54.65392 9.99059 2003 ft 138 kts 342°
2026-04-17 14:31 54.66292 9.98507 2024 ft 138 kts 342°
2026-04-17 14:31 54.67193 9.97946 2007 ft 136 kts 342°
2026-04-17 14:31 54.68080 9.97394 2008 ft 135 kts 342°
2026-04-17 14:32 54.68968 9.96836 2008 ft 138 kts 341°
2026-04-17 14:32 54.69882 9.96286 1998 ft 139 kts 342°
2026-04-17 14:32 54.70773 9.95744 2014 ft 138 kts 341°
2026-04-17 14:32 54.71685 9.95202 2012 ft 139 kts 342°
2026-04-17 14:33 54.72595 9.94655 2015 ft 138 kts 342°
2026-04-17 14:33 54.73515 9.94094 2008 ft 139 kts 341°
2026-04-17 14:33 54.74421 9.93541 2011 ft 138 kts 342°
2026-04-17 14:33 54.75318 9.92997 2006 ft 138 kts 342°
2026-04-17 14:34 54.76229 9.92437 2011 ft 139 kts 340°
2026-04-17 14:34 54.77077 9.91630 1978 ft 140 kts 323°
2026-04-17 14:34 54.77840 9.90532 1879 ft 146 kts 313°
2026-04-17 14:34 54.78449 9.89183 1892 ft 140 kts 308°
2026-04-17 14:35 54.79041 9.87878 1924 ft 135 kts 308°
2026-04-17 14:35 54.79603 9.86602 1979 ft 132 kts 307°
2026-04-17 14:35 54.80182 9.85334 1970 ft 134 kts 309°
2026-04-17 14:35 54.80762 9.84089 2029 ft 129 kts 309°
2026-04-17 14:36 54.81331 9.82918 1993 ft 131 kts 311°
2026-04-17 14:36 54.81946 9.81682 1938 ft 128 kts 309°
2026-04-17 14:36 54.82393 9.80417 1983 ft 124 kts 284°
2026-04-17 14:36 54.82367 9.78928 1971 ft 123 kts 254°
2026-04-17 14:37 54.82182 9.77473 1978 ft 124 kts 261°
2026-04-17 14:37 54.82151 9.76517 2059 ft 118 kts 269°
2026-04-17 14:37 54.82025 9.75175 2118 ft 111 kts 225°
2026-04-17 14:37 54.81189 9.75431 2120 ft 109 kts 113°
2026-04-17 14:38 54.81435 9.76641 2082 ft 124 kts 35°
2026-04-17 14:38 54.82021 9.76776 1995 ft 133 kts 348°
2026-04-17 14:38 54.82775 9.75856 1901 ft 135 kts 317°
2026-04-17 14:38 54.83516 9.74925 1926 ft 129 kts 327°
2026-04-17 14:39 54.84276 9.74096 1948 ft 128 kts 329°
2026-04-17 14:39 54.85022 9.73258 2037 ft 127 kts 328°
2026-04-17 14:39 54.85774 9.72403 2038 ft 131 kts 327°
2026-04-17 14:39 54.86535 9.71525 2076 ft 130 kts 327°
2026-04-17 14:40 54.87298 9.70669 2070 ft 132 kts 328°
2026-04-17 14:40 54.88087 9.69800 2030 ft 134 kts 327°
2026-04-17 14:40 54.88877 9.68935 2025 ft 133 kts 331°
2026-04-17 14:40 54.89727 9.68449 2011 ft 131 kts 354°
2026-04-17 14:41 54.90635 9.68378 1974 ft 130 kts 358°
2026-04-17 14:41 54.91524 9.68210 1994 ft 124 kts
2026-04-17 14:41 54.92285 9.68780 2083 ft 117 kts 33°
2026-04-17 14:41 54.92967 9.69573 2104 ft 118 kts 36°
2026-04-17 14:42 54.93237 9.70746 2113 ft 112 kts 113°
2026-04-17 14:42 54.92600 9.71327 2080 ft 115 kts 186°
2026-04-17 14:42 54.91996 9.70469 2133 ft 118 kts 246°
2026-04-17 14:42 54.92181 9.69091 2073 ft 129 kts 317°
2026-04-17 14:43 54.93034 9.68860 1961 ft 131 kts 21°
2026-04-17 14:43 54.93860 9.69539 1807 ft 133 kts 34°
2026-04-17 14:43 54.94554 9.70598 1634 ft 130 kts 52°
2026-04-17 14:43 54.94889 9.71934 1466 ft 119 kts 89°
2026-04-17 14:44 54.94864 9.73335 1328 ft 118 kts 97°
2026-04-17 14:44 54.94766 9.74774 1208 ft 120 kts 96°
2026-04-17 14:44 54.94987 9.76117 1193 ft 118 kts 63°
2026-04-17 14:44 54.95434 9.77345 1137 ft 121 kts 58°
2026-04-17 14:45 54.95933 9.78487 1151 ft 114 kts 54°
2026-04-17 14:45 54.96446 9.79511 1101 ft 110 kts 54°
2026-04-17 14:45 54.97118 9.79937 948 ft 113 kts 340°
2026-04-17 14:45 54.97697 9.79190 791 ft 97 kts 320°
2026-04-17 14:46 54.97957 9.78246 632 ft 90 kts 241°
2026-04-17 14:46 54.97543 9.77610 387 ft 79 kts 175°
2026-04-17 14:46 54.97129 9.78136 160 ft 71 kts 137°
2026-04-17 14:46 54.96770 9.78680 28 ft 59 kts 137°
2026-04-17 14:47 54.96499 9.79086 29 ft 63 kts 139°
2026-04-17 14:47 54.96125 9.79581 253 ft 67 kts 143°
2026-04-17 14:47 54.95736 9.80122 471 ft 79 kts 137°
2026-04-17 14:47 54.95577 9.80990 698 ft 87 kts 75°
2026-04-17 14:48 54.96070 9.81595 902 ft 98 kts
2026-04-17 14:48 54.96695 9.81032 1015 ft 107 kts 320°
2026-04-17 14:48 54.97257 9.80172 1142 ft 109 kts 317°
2026-04-17 14:48 54.97839 9.79338 1292 ft 108 kts 329°
2026-04-17 14:49 54.98592 9.79147 1390 ft 112 kts
2026-04-17 14:49 54.99370 9.79358 1579 ft 109 kts 11°
2026-04-17 14:49 55.00104 9.79568 1809 ft 104 kts 12°
2026-04-17 14:49 55.00853 9.79668 1824 ft 119 kts 359°
2026-04-17 14:50 55.01730 9.79551 1662 ft 134 kts 359°
2026-04-17 14:50 55.02665 9.79598 1474 ft 131 kts
2026-04-17 14:50 55.03552 9.79705 1418 ft 127 kts
2026-04-17 14:50 55.04417 9.79861 1396 ft 122 kts
2026-04-17 14:51 55.05237 9.80001 1397 ft 118 kts
2026-04-17 14:51 55.06054 9.80136 1392 ft 118 kts
2026-04-17 14:51 55.06864 9.80030 1389 ft 116 kts 348°
2026-04-17 14:51 55.07640 9.79651 1390 ft 115 kts 346°
2026-04-17 14:52 55.08414 9.79276 1394 ft 116 kts 346°
2026-04-17 14:52 55.09204 9.79132 1390 ft 115 kts 360°
2026-04-17 14:52 55.10008 9.79096 1390 ft 115 kts
2026-04-17 14:52 55.10811 9.79084 1392 ft 116 kts
2026-04-17 14:53 55.11618 9.79118 1390 ft 115 kts
2026-04-17 14:53 55.12420 9.79147 1391 ft 116 kts
2026-04-17 14:53 55.13217 9.79179 1388 ft 116 kts
2026-04-17 14:53 55.14023 9.79225 1388 ft 115 kts
2026-04-17 14:54 55.14825 9.79277 1391 ft 115 kts
2026-04-17 14:54 55.15617 9.79323 1390 ft 113 kts
2026-04-17 14:54 55.16411 9.79372 1389 ft 114 kts
2026-04-17 14:54 55.17206 9.79422 1392 ft 115 kts
2026-04-17 14:55 55.17996 9.79474 1388 ft 115 kts
2026-04-17 14:55 55.18796 9.79524 1387 ft 115 kts
2026-04-17 14:55 55.19597 9.79579 1389 ft 115 kts
2026-04-17 14:55 55.20397 9.79635 1389 ft 115 kts
2026-04-17 14:56 55.21200 9.79695 1389 ft 115 kts
2026-04-17 14:56 55.22004 9.79752 1391 ft 116 kts
2026-04-17 14:56 55.22812 9.79809 1389 ft 116 kts
2026-04-17 14:56 55.23613 9.79867 1390 ft 115 kts
2026-04-17 14:57 55.24410 9.79922 1384 ft 114 kts
2026-04-17 14:57 55.25198 9.79984 1384 ft 114 kts
2026-04-17 14:57 55.25999 9.80042 1388 ft 116 kts
2026-04-17 14:57 55.26814 9.80097 1388 ft 118 kts
2026-04-17 14:58 55.27638 9.80152 1390 ft 118 kts
2026-04-17 14:58 55.28458 9.80207 1386 ft 117 kts
2026-04-17 14:58 55.29260 9.80262 1387 ft 117 kts
2026-04-17 14:58 55.30073 9.80311 1387 ft 117 kts
2026-04-17 14:59 55.30892 9.80323 1386 ft 119 kts
2026-04-17 14:59 55.31703 9.80094 1378 ft 120 kts 333°
2026-04-17 14:59 55.32256 9.79031 1377 ft 118 kts 296°
2026-04-17 14:59 55.32611 9.77762 1378 ft 117 kts 294°
2026-04-17 15:00 55.32966 9.76480 1377 ft 117 kts 294°
2026-04-17 15:00 55.33317 9.75190 1374 ft 117 kts 294°
2026-04-17 15:00 55.33667 9.73905 1378 ft 116 kts 294°
2026-04-17 15:00 55.34022 9.72622 1377 ft 117 kts 294°
2026-04-17 15:01 55.34380 9.71327 1378 ft 118 kts 294°
2026-04-17 15:01 55.34732 9.70021 1381 ft 119 kts 294°
2026-04-17 15:01 55.35088 9.68706 1379 ft 119 kts 294°
2026-04-17 15:01 55.35443 9.67405 1381 ft 119 kts 294°
2026-04-17 15:02 55.35804 9.66081 1378 ft 119 kts 294°
2026-04-17 15:02 55.36162 9.64773 1380 ft 118 kts 294°
2026-04-17 15:02 55.36521 9.63470 1377 ft 118 kts 294°
2026-04-17 15:02 55.36876 9.62176 1377 ft 117 kts 294°
2026-04-17 15:03 55.37231 9.60896 1385 ft 117 kts 294°
2026-04-17 15:03 55.37582 9.59609 1379 ft 118 kts 294°
2026-04-17 15:03 55.37936 9.58310 1376 ft 117 kts 294°
2026-04-17 15:03 55.38287 9.57025 1375 ft 116 kts 294°
2026-04-17 15:04 55.38478 9.55667 1369 ft 114 kts 275°
2026-04-17 15:04 55.38585 9.54308 1373 ft 114 kts 275°
2026-04-17 15:04 55.38687 9.52918 1373 ft 115 kts 275°
2026-04-17 15:04 55.38792 9.51513 1374 ft 116 kts 275°
2026-04-17 15:05 55.38896 9.50101 1371 ft 116 kts 275°
2026-04-17 15:05 55.38993 9.48696 1375 ft 115 kts 275°
2026-04-17 15:05 55.39091 9.47305 1369 ft 116 kts 275°
2026-04-17 15:05 55.39188 9.45901 1374 ft 116 kts 275°
2026-04-17 15:06 55.39287 9.44485 1381 ft 117 kts 275°
2026-04-17 15:06 55.39388 9.43052 1369 ft 118 kts 275°
2026-04-17 15:06 55.39492 9.41644 1378 ft 115 kts 275°
2026-04-17 15:06 55.39602 9.40220 1380 ft 118 kts 275°
2026-04-17 15:07 55.39713 9.38784 1378 ft 118 kts 273°
2026-04-17 15:07 55.39829 9.37372 1391 ft 118 kts 275°
2026-04-17 15:07 55.39945 9.35945 1391 ft 117 kts 274°
2026-04-17 15:07 55.40077 9.34526 1386 ft 117 kts 275°
2026-04-17 15:08 55.40192 9.33112 1385 ft 116 kts 273°
2026-04-17 15:08 55.40305 9.31701 1387 ft 117 kts 275°
2026-04-17 15:08 55.40416 9.30279 1381 ft 116 kts 274°
2026-04-17 15:08 55.40541 9.28901 1384 ft 111 kts 275°
2026-04-17 15:09 55.40667 9.27570 1394 ft 113 kts 275°
2026-04-17 15:09 55.40783 9.26197 1387 ft 112 kts 274°
2026-04-17 15:09 55.40908 9.24855 1392 ft 110 kts 273°
2026-04-17 15:09 55.41041 9.23507 1388 ft 112 kts 276°
2026-04-17 15:10 55.41150 9.22155 1385 ft 110 kts 275°
2026-04-17 15:10 55.41256 9.20843 1389 ft 109 kts 274°
2026-04-17 15:10 55.41372 9.19515 1394 ft 112 kts 275°
2026-04-17 15:11 55.41630 9.16764 1388 ft 113 kts 275°
2026-04-17 15:11 55.41752 9.15403 1389 ft 111 kts 275°
2026-04-17 15:11 55.41865 9.14053 1391 ft 114 kts 274°
2026-04-17 15:11 55.41991 9.12670 1386 ft 114 kts 274°
2026-04-17 15:12 55.42111 9.11288 1388 ft 114 kts 270°
2026-04-17 15:12 55.42178 9.09887 1381 ft 113 kts 269°
2026-04-17 15:12 55.42250 9.08535 1384 ft 111 kts 270°
2026-04-17 15:12 55.42317 9.07166 1385 ft 112 kts 270°
2026-04-17 15:13 55.42373 9.05770 1387 ft 115 kts 270°
2026-04-17 15:13 55.42432 9.04349 1388 ft 116 kts 270°
2026-04-17 15:13 55.42495 9.02922 1386 ft 116 kts 270°
2026-04-17 15:13 55.42508 9.01498 1382 ft 115 kts 264°
2026-04-17 15:14 55.42499 9.00088 1378 ft 114 kts 264°
2026-04-17 15:14 55.42491 8.98703 1379 ft 114 kts 264°
2026-04-17 15:14 55.42481 8.97299 1381 ft 115 kts 264°
2026-04-17 15:14 55.42471 8.95889 1383 ft 115 kts 265°
2026-04-17 15:15 55.42454 8.94469 1381 ft 116 kts 264°
2026-04-17 15:15 55.42446 8.93054 1379 ft 115 kts 264°
2026-04-17 15:15 55.42428 8.91639 1369 ft 117 kts 264°
2026-04-17 15:15 55.42396 8.90211 1373 ft 116 kts 264°
2026-04-17 15:16 55.42362 8.88778 1364 ft 121 kts 264°
2026-04-17 15:16 55.42322 8.87283 1364 ft 123 kts 264°
2026-04-17 15:16 55.42281 8.85768 1364 ft 124 kts 263°
2026-04-17 15:16 55.42247 8.84247 1362 ft 124 kts 263°
2026-04-17 15:17 55.42210 8.82726 1367 ft 125 kts 264°
2026-04-17 15:17 55.42168 8.81183 1372 ft 128 kts 264°
2026-04-17 15:17 55.42127 8.79591 1372 ft 131 kts 264°
2026-04-17 15:17 55.42073 8.77959 1368 ft 135 kts 263°
2026-04-17 15:18 55.42020 8.76305 1366 ft 137 kts 264°
2026-04-17 15:18 55.41961 8.74620 1367 ft 138 kts 263°
2026-04-17 15:18 55.41904 8.72934 1365 ft 138 kts 263°
2026-04-17 15:18 55.41846 8.71242 1366 ft 138 kts 264°
2026-04-17 15:19 55.41789 8.69564 1363 ft 136 kts 263°
2026-04-17 15:19 55.41737 8.67930 1358 ft 134 kts 264°
2026-04-17 15:19 55.41735 8.66297 1379 ft 131 kts 270°
2026-04-17 15:19 55.41844 8.64697 1386 ft 132 kts 284°
2026-04-17 15:20 55.42312 8.63301 1279 ft 137 kts 317°
2026-04-17 15:20 55.43132 8.62444 1169 ft 135 kts 337°
2026-04-17 15:20 55.44005 8.61939 1174 ft 128 kts 344°
2026-04-17 15:20 55.44836 8.61502 1148 ft 126 kts 342°
2026-04-17 15:21 55.45673 8.61031 1107 ft 126 kts 344°
2026-04-17 15:21 55.46510 8.60605 1134 ft 121 kts 345°
2026-04-17 15:21 55.47345 8.60184 1083 ft 125 kts 344°
2026-04-17 15:21 55.48156 8.59611 1055 ft 128 kts 336°
2026-04-17 15:22 55.48928 8.58910 1088 ft 126 kts 329°
2026-04-17 15:22 55.49707 8.58152 1062 ft 129 kts 330°
2026-04-17 15:22 55.50500 8.57342 959 ft 134 kts 331°
2026-04-17 15:22 55.51285 8.56599 1099 ft 118 kts 328°
2026-04-17 15:23 55.51779 8.56132 1042 ft 123 kts 351°
2026-04-17 15:23 55.52278 8.57357 928 ft 111 kts 101°
2026-04-17 15:23 55.52199 8.58582 830 ft 94 kts 101°
2026-04-17 15:23 55.52348 8.59296 800 ft 97 kts 49°
2026-04-17 15:24 55.52874 8.59553 697 ft 77 kts 315°
2026-04-17 15:24 55.52954 8.58677 394 ft 73 kts 252°
2026-04-17 15:24 55.52864 8.57822 197 ft 69 kts 247°
2026-04-17 15:24 55.52764 8.56980 84 ft 63 kts 257°
2026-04-17 15:25 55.52699 8.56341 78 ft 62 kts 257°
2026-04-17 15:25 55.52627 8.55442 210 ft 81 kts 262°
2026-04-17 15:25 55.52506 8.54386 428 ft 91 kts 255°
2026-04-17 15:25 55.52411 8.53272 725 ft 94 kts 258°
2026-04-17 15:26 55.52484 8.52132 975 ft 106 kts 306°
2026-04-17 15:26 55.53177 8.51973 1039 ft 113 kts 39°
2026-04-17 15:26 55.53514 8.53209 965 ft 117 kts 86°
2026-04-17 15:26 55.53880 8.54416 1019 ft 118 kts 26°
2026-04-17 15:27 55.54701 8.54538 986 ft 121 kts 354°
2026-04-17 15:27 55.55541 8.54288 957 ft 121 kts 351°
2026-04-17 15:27 55.56373 8.54023 965 ft 122 kts 351°
2026-04-17 15:27 55.57219 8.53767 968 ft 124 kts 351°
2026-04-17 15:28 55.58069 8.53518 968 ft 126 kts 351°
2026-04-17 15:28 55.58915 8.53745 961 ft 124 kts 32°
2026-04-17 15:28 55.59435 8.54876 954 ft 117 kts 76°
2026-04-17 15:28 55.59668 8.56228 968 ft 114 kts 78°
2026-04-17 15:29 55.59890 8.57579 963 ft 114 kts 79°
2026-04-17 15:29 55.60119 8.58909 969 ft 113 kts 79°
2026-04-17 15:29 55.60336 8.60240 974 ft 115 kts 77°
2026-04-17 15:29 55.60547 8.61625 970 ft 117 kts 79°
2026-04-17 15:30 55.60765 8.63012 971 ft 117 kts 77°
2026-04-17 15:30 55.60969 8.64417 973 ft 118 kts 82°
2026-04-17 15:30 55.61103 8.65825 970 ft 114 kts 90°
2026-04-17 15:30 55.61119 8.67191 972 ft 112 kts 94°
2026-04-17 15:31 55.61118 8.68572 974 ft 112 kts 94°
2026-04-17 15:31 55.61116 8.69947 976 ft 112 kts 94°
2026-04-17 15:31 55.61120 8.71322 977 ft 111 kts 93°
2026-04-17 15:31 55.61124 8.72670 975 ft 110 kts 94°
2026-04-17 15:32 55.61139 8.74015 976 ft 109 kts 92°
2026-04-17 15:32 55.61132 8.75361 983 ft 109 kts 95°
2026-04-17 15:32 55.61137 8.76709 985 ft 110 kts 94°
2026-04-17 15:32 55.61138 8.78057 983 ft 111 kts 94°
2026-04-17 15:33 55.61134 8.79434 979 ft 111 kts 92°
2026-04-17 15:33 55.61142 8.80791 979 ft 108 kts 93°
2026-04-17 15:33 55.61163 8.82104 986 ft 105 kts 94°
2026-04-17 15:33 55.61177 8.83404 986 ft 108 kts 95°
2026-04-17 15:34 55.61200 8.84720 989 ft 107 kts 93°
2026-04-17 15:34 55.61209 8.86041 988 ft 107 kts 94°
2026-04-17 15:34 55.61212 8.87354 981 ft 106 kts 94°
2026-04-17 15:34 55.61231 8.88642 986 ft 107 kts 95°
2026-04-17 15:35 55.61247 8.89976 983 ft 108 kts 93°
2026-04-17 15:35 55.61256 8.91275 989 ft 103 kts 94°
2026-04-17 15:35 55.61263 8.92546 991 ft 104 kts 92°
2026-04-17 15:35 55.61269 8.93842 988 ft 105 kts 94°
2026-04-17 15:36 55.61283 8.95131 993 ft 105 kts 92°
2026-04-17 15:36 55.61294 8.96412 984 ft 106 kts 94°
2026-04-17 15:36 55.61299 8.97702 989 ft 105 kts 93°
2026-04-17 15:36 55.61290 8.98986 987 ft 104 kts 95°
2026-04-17 15:37 55.61348 9.00283 998 ft 110 kts 74°
2026-04-17 15:37 55.61859 9.01303 1009 ft 112 kts 38°
2026-04-17 15:37 55.62518 9.02075 982 ft 114 kts 38°
2026-04-17 15:37 55.63125 9.02904 998 ft 108 kts 49°
2026-04-17 15:38 55.63665 9.03828 1002 ft 111 kts 47°
2026-04-17 15:38 55.64222 9.04776 993 ft 112 kts 50°
2026-04-17 15:38 55.64763 9.05755 982 ft 108 kts 53°
2026-04-17 15:38 55.65243 9.06754 998 ft 109 kts 54°
2026-04-17 15:39 55.65751 9.07769 1011 ft 111 kts 54°
2026-04-17 15:39 55.66252 9.08810 1002 ft 110 kts 52°
2026-04-17 15:39 55.66751 9.09838 1002 ft 111 kts 52°
2026-04-17 15:39 55.67251 9.10885 1003 ft 111 kts 52°
2026-04-17 15:40 55.67717 9.11963 991 ft 110 kts 59°
2026-04-17 15:40 55.68164 9.13040 1013 ft 106 kts 57°
2026-04-17 15:40 55.68601 9.14088 983 ft 105 kts 59°
2026-04-17 15:40 55.69047 9.15098 1007 ft 107 kts 57°
2026-04-17 15:41 55.69576 9.16027 1005 ft 108 kts 33°
2026-04-17 15:41 55.70322 9.16327 1002 ft 113 kts
2026-04-17 15:41 55.71110 9.16468 996 ft 114 kts
2026-04-17 15:41 55.71897 9.16617 994 ft 113 kts
2026-04-17 15:42 55.72462 9.17296 1055 ft 100 kts 89°
2026-04-17 15:42 55.72420 9.18495 1100 ft 96 kts 95°
2026-04-17 15:42 55.72489 9.19614 1249 ft 87 kts 63°
2026-04-17 15:42 55.73046 9.20181 1062 ft 95 kts 15°
2026-04-17 15:43 55.73683 9.20178 802 ft 85 kts 344°
2026-04-17 15:43 55.74116 9.19447 511 ft 87 kts 301°
2026-04-17 15:43 55.74141 9.18457 293 ft 76 kts 262°
2026-04-17 15:43 55.74106 9.17550 213 ft 63 kts 267°
2026-04-17 15:44 55.74091 9.17107 212 ft 22 kts 265°
2026-04-17 15:44 55.74104 9.16932 211 ft 8 kts 328°
2026-04-17 15:44 55.74207 9.16906 210 ft 15 kts 357°
2026-04-17 15:44 55.74252 9.16866 218 ft 5 kts 268°
2026-04-17 15:45 55.74250 9.16747 213 ft 13 kts 264°
2026-04-17 15:45 55.74247 9.16563 210 ft 17 kts 265°
2026-04-17 15:45 55.74235 9.16351 210 ft 18 kts 271°
2026-04-17 15:45 55.74230 9.16124 210 ft 19 kts 265°
2026-04-17 15:46 55.74222 9.15886 216 ft 19 kts 263°
2026-04-17 15:46 55.74216 9.15650 210 ft 19 kts 269°
2026-04-17 15:46 55.74206 9.15415 210 ft 19 kts 267°
2026-04-17 15:46 55.74202 9.15173 210 ft 20 kts 265°
2026-04-17 15:47 55.74192 9.14928 210 ft 20 kts 269°
2026-04-17 15:47 55.74185 9.14713 210 ft 12 kts 264°
2026-04-17 15:47 55.74182 9.14540 214 ft 14 kts 256°
2026-04-17 15:47 55.74110 9.14493 210 ft 12 kts 174°
2026-04-17 15:48 55.73958 9.14435 210 ft 13 kts 230°
2026-04-17 15:48 55.73887 9.14300 210 ft 19 kts 232°
2026-04-17 15:48 55.73844 9.14132 214 ft 15 kts 257°
2026-04-17 15:48 55.73838 9.14086 210 ft 0 kts 265°
2026-04-17 15:49 55.73833 9.13941 213 ft 14 kts 264°
2026-04-17 15:49 55.73826 9.13779 210 ft 11 kts 263°
2026-04-17 15:49 55.73798 9.13670 210 ft 17 kts 219°
2026-04-17 15:50 55.73765 9.13509 210 ft 11 kts 262°
2026-04-17 15:50 55.73726 9.13497 210 ft 1 kts 36°
2026-04-17 15:50 55.73727 9.13498 210 ft 0 kts
2026-04-17 15:50 55.73741 9.13474 218 ft 6 kts 253°
2026-04-17 15:51 55.73717 9.13474 212 ft 2 kts 81°
2026-04-17 15:51 55.73725 9.13484 210 ft 0 kts 359°
2026-04-17 16:23 55.73735 9.13510 216 ft 5 kts 69°
2026-04-17 16:24 55.73739 9.13517 210 ft 0 kts 15°
2026-04-17 16:26 55.73739 9.13518 210 ft 0 kts 14°
2026-04-17 16:26 55.73752 9.13526 216 ft 10 kts 27°
2026-04-17 16:27 55.73933 9.13596 210 ft 20 kts
2026-04-17 16:27 55.73986 9.13614 213 ft 0 kts 87°
2026-04-17 16:27 55.73996 9.14009 210 ft 59 kts 88°
2026-04-17 16:28 55.74028 9.14837 377 ft 73 kts 90°
2026-04-17 16:28 55.74059 9.15746 612 ft 74 kts 92°
2026-04-17 16:28 55.74080 9.16668 858 ft 75 kts 89°
2026-04-17 16:28 55.74095 9.17602 1093 ft 79 kts 89°
2026-04-17 16:29 55.74133 9.18584 1388 ft 79 kts 83°
2026-04-17 16:29 55.74557 9.19275 1587 ft 100 kts 12°
2026-04-17 16:29 55.75283 9.19150 1778 ft 110 kts 351°
2026-04-17 16:29 55.76074 9.18931 1894 ft 118 kts 352°
2026-04-17 16:30 55.76902 9.18709 1992 ft 126 kts 352°
2026-04-17 16:30 55.77804 9.18454 1988 ft 134 kts 352°
2026-04-17 16:30 55.78741 9.18181 1970 ft 138 kts 352°
2026-04-17 16:30 55.79682 9.17914 1987 ft 139 kts 352°
2026-04-17 16:31 55.80640 9.17859 1990 ft 136 kts
2026-04-17 16:31 55.81571 9.17944 1991 ft 132 kts
2026-04-17 16:31 55.82487 9.18035 1992 ft 131 kts
2026-04-17 16:31 55.83401 9.18127 1990 ft 132 kts
2026-04-17 16:32 55.84307 9.18221 1989 ft 129 kts
2026-04-17 16:32 55.85197 9.18307 1988 ft 130 kts
2026-04-17 16:32 55.86100 9.18394 1990 ft 130 kts
2026-04-17 16:32 55.87011 9.18479 1990 ft 131 kts
2026-04-17 16:33 55.87925 9.18573 1981 ft 131 kts
2026-04-17 16:33 55.88715 9.18587 1977 ft 131 kts 355°
2026-04-17 16:33 55.89582 9.18402 1981 ft 132 kts 353°
2026-04-17 16:33 55.90407 9.18215 1964 ft 103 kts 353°
2026-04-17 16:34 55.91065 9.18072 1977 ft 94 kts 353°
2026-04-17 16:34 55.91715 9.17910 1979 ft 95 kts 352°
2026-04-17 16:34 55.92375 9.17750 1982 ft 96 kts 352°
2026-04-17 16:34 55.93036 9.17585 1978 ft 96 kts 353°
2026-04-17 16:35 55.93691 9.17428 1979 ft 94 kts 353°
2026-04-17 16:35 55.94332 9.17270 1982 ft 94 kts 353°
2026-04-17 16:35 55.94989 9.17105 1980 ft 96 kts 353°
2026-04-17 16:35 55.95603 9.16953 1965 ft 93 kts 353°
2026-04-17 16:36 55.96255 9.16758 2012 ft 92 kts 343°
2026-04-17 16:36 55.96882 9.16324 2026 ft 105 kts 334°
2026-04-17 16:36 55.97635 9.16051 2028 ft 114 kts 351°
2026-04-17 16:36 55.98447 9.15896 2027 ft 121 kts 355°
2026-04-17 16:37 55.99270 9.15897 2128 ft 114 kts
2026-04-17 16:37 56.00052 9.15954 2184 ft 102 kts 360°
2026-04-17 16:37 56.00709 9.15875 2138 ft 95 kts 343°
2026-04-17 16:37 56.01395 9.15386 2048 ft 122 kts 332°
2026-04-17 16:38 56.02235 9.14721 1933 ft 143 kts 335°
2026-04-17 16:38 56.03079 9.13982 2052 ft 122 kts 333°
2026-04-17 16:38 56.03802 9.13499 1976 ft 111 kts 348°
2026-04-17 16:38 56.04518 9.12904 1946 ft 120 kts 332°
2026-04-17 16:39 56.05246 9.12083 1868 ft 129 kts 319°
2026-04-17 16:39 56.05934 9.11053 1882 ft 125 kts 316°
2026-04-17 16:39 56.06559 9.10080 1917 ft 117 kts 318°
2026-04-17 16:39 56.07169 9.09129 1924 ft 116 kts 314°
2026-04-17 16:40 56.07803 9.08230 1938 ft 117 kts 324°
2026-04-17 16:40 56.08494 9.07409 1912 ft 120 kts 325°
2026-04-17 16:40 56.09198 9.06602 1888 ft 125 kts 326°
2026-04-17 16:40 56.09930 9.05711 1848 ft 133 kts 317°
2026-04-17 16:41 56.10646 9.04755 1808 ft 125 kts 326°
2026-04-17 16:41 56.11281 9.03849 1851 ft 117 kts 326°
2026-04-17 16:41 56.11911 9.02923 1834 ft 121 kts 313°
2026-04-17 16:41 56.12451 9.01773 1858 ft 122 kts 301°
2026-04-17 16:42 56.12958 9.00558 1817 ft 122 kts 305°
2026-04-17 16:42 56.13437 8.99351 1824 ft 118 kts 300°
2026-04-17 16:42 56.13788 8.98063 1812 ft 115 kts 281°
2026-04-17 16:42 56.13990 8.96708 1890 ft 113 kts 272°
2026-04-17 16:43 56.14143 8.95273 1870 ft 121 kts 275°
2026-04-17 16:43 56.14289 8.93759 1775 ft 132 kts 297°
2026-04-17 16:43 56.15079 8.92986 1772 ft 136 kts 344°
2026-04-17 16:43 56.15918 8.92589 1898 ft 106 kts 343°
2026-04-17 16:44 56.16700 8.92179 1766 ft 121 kts 341°
2026-04-17 16:44 56.17512 8.91698 1773 ft 123 kts 340°
2026-04-17 16:44 56.18319 8.91158 1722 ft 127 kts 338°
2026-04-17 16:44 56.19138 8.90556 1716 ft 123 kts 344°
2026-04-17 16:45 56.19957 8.90171 1728 ft 119 kts 338°
2026-04-17 16:45 56.20688 8.89615 1876 ft 106 kts 327°
2026-04-17 16:45 56.21253 8.88751 1923 ft 113 kts 310°
2026-04-17 16:45 56.21836 8.87684 1871 ft 124 kts 312°
2026-04-17 16:46 56.22487 8.86645 1896 ft 127 kts 323°
2026-04-17 16:46 56.23173 8.85660 1950 ft 125 kts 317°
2026-04-17 16:46 56.23848 8.84731 2034 ft 120 kts 322°
2026-04-17 16:46 56.24551 8.83837 2006 ft 125 kts 315°
2026-04-17 16:47 56.25133 8.82695 2063 ft 122 kts 310°
2026-04-17 16:47 56.25760 8.81628 2028 ft 127 kts 316°
2026-04-17 16:47 56.26440 8.80612 2074 ft 124 kts 317°
2026-04-17 16:47 56.27111 8.79634 2085 ft 126 kts 319°
2026-04-17 16:48 56.27806 8.78665 2124 ft 123 kts 322°
2026-04-17 16:48 56.28540 8.77940 2145 ft 117 kts 332°
2026-04-17 16:48 56.29239 8.77299 2170 ft 115 kts 327°
2026-04-17 16:48 56.29913 8.76404 2194 ft 130 kts 323°
2026-04-17 16:49 56.30778 8.75826 2188 ft 139 kts 347°
2026-04-17 16:49 56.31757 8.75565 2153 ft 142 kts 349°
2026-04-17 16:49 56.32723 8.75299 2190 ft 139 kts 352°
2026-04-17 16:49 56.33695 8.75121 2138 ft 143 kts 356°
2026-04-17 16:50 56.34689 8.74943 2041 ft 146 kts 354°
2026-04-17 16:50 56.35701 8.74740 1984 ft 143 kts 355°
2026-04-17 16:50 56.36681 8.74665 1945 ft 143 kts 358°
2026-04-17 16:50 56.37640 8.74301 1986 ft 136 kts 341°
2026-04-17 16:51 56.38573 8.74038 1974 ft 137 kts
2026-04-17 16:51 56.39462 8.74604 1950 ft 137 kts 28°
2026-04-17 16:51 56.40319 8.75393 1883 ft 141 kts 30°
2026-04-17 16:51 56.41069 8.76404 1956 ft 130 kts 51°
2026-04-17 16:52 56.41702 8.77581 2013 ft 130 kts 48°
2026-04-17 16:52 56.42328 8.78581 1960 ft 137 kts 39°
2026-04-17 16:52 56.43093 8.79650 1904 ft 139 kts 41°
2026-04-17 16:52 56.43832 8.80709 1933 ft 132 kts 43°
2026-04-17 16:53 56.44514 8.81780 1967 ft 128 kts 44°
2026-04-17 16:53 56.45164 8.82816 1962 ft 130 kts 42°
2026-04-17 16:53 56.45883 8.83849 1914 ft 131 kts 41°
2026-04-17 16:53 56.46550 8.84934 1958 ft 126 kts 51°
2026-04-17 16:54 56.47149 8.86044 2018 ft 123 kts 48°
2026-04-17 16:54 56.47755 8.87225 1939 ft 129 kts 50°
2026-04-17 16:54 56.48399 8.88360 1959 ft 129 kts 46°
2026-04-17 16:54 56.49081 8.89489 1814 ft 137 kts 45°
2026-04-17 16:55 56.49788 8.90276 2000 ft 109 kts 36°
2026-04-17 16:55 56.50475 8.91175 1894 ft 125 kts 39°
2026-04-17 16:55 56.51173 8.92114 1897 ft 129 kts 41°
2026-04-17 16:55 56.51890 8.93145 1870 ft 132 kts 46°
2026-04-17 16:56 56.52425 8.94447 1892 ft 128 kts 65°
2026-04-17 16:56 56.52698 8.95402 1867 ft 130 kts 67°
2026-04-17 16:56 56.53272 8.97232 1950 ft 126 kts 62°
2026-04-17 16:56 56.53746 8.98603 1922 ft 131 kts 61°
2026-04-17 16:57 56.54237 9.00022 1863 ft 134 kts 62°
2026-04-17 16:57 56.54556 9.00997 1808 ft 136 kts 64°
2026-04-17 16:57 56.55078 9.03063 1728 ft 133 kts 77°
2026-04-17 16:57 56.55316 9.04697 1627 ft 135 kts 76°
2026-04-17 16:58 56.55494 9.05822 1541 ft 137 kts 78°
2026-04-17 16:58 56.55740 9.07467 1410 ft 130 kts 80°
2026-04-17 16:58 56.56193 9.08807 1258 ft 126 kts 49°
2026-04-17 16:58 56.56677 9.10034 1116 ft 115 kts 64°
2026-04-17 16:59 56.57023 9.11234 1045 ft 99 kts 71°
2026-04-17 16:59 56.57207 9.12405 975 ft 96 kts 85°
2026-04-17 16:59 56.57170 9.13582 895 ft 96 kts 109°
2026-04-17 16:59 56.56814 9.14518 734 ft 85 kts 141°
2026-04-17 17:00 56.56392 9.15215 492 ft 82 kts 140°
2026-04-17 17:00 56.55982 9.15826 318 ft 70 kts 142°
2026-04-17 17:00 56.55598 9.16410 170 ft 72 kts 141°
2026-04-17 17:00 56.55257 9.16942 71 ft 52 kts 140°
2026-04-17 17:01 56.55075 9.17188 70 ft 9 kts 163°
2026-04-17 17:01 56.55094 9.17183 72 ft 13 kts 315°
2026-04-17 17:01 56.55211 9.17003 66 ft 31 kts 321°
2026-04-17 17:01 56.55369 9.16752 68 ft 25 kts 322°
2026-04-17 17:02 56.55386 9.16589 72 ft 10 kts 228°
2026-04-17 17:02 56.55352 9.16514 70 ft 11 kts 236°
2026-04-17 17:02 56.55337 9.16529 74 ft 6 kts 23°
2026-04-17 17:02 56.55394 9.16603 73 ft 12 kts 47°
2026-04-17 17:03 56.55407 9.16632 72 ft 0 kts 54°
2026-04-17 17:03 56.55412 9.16648 68 ft 6 kts 73°
2026-04-17 17:03 56.55282 9.16896 66 ft 57 kts 141°
2026-04-17 17:04 56.54915 9.17477 205 ft 76 kts 143°
2026-04-17 17:04 56.54491 9.18058 449 ft 80 kts 146°
2026-04-17 17:04 56.54193 9.18906 689 ft 83 kts 102°
2026-04-17 17:04 56.54218 9.19962 885 ft 85 kts 103°
2026-04-17 17:05 56.53930 9.20875 999 ft 88 kts 141°
2026-04-17 17:05 56.53501 9.21611 1171 ft 86 kts 137°
2026-04-17 17:05 56.53134 9.22376 1462 ft 76 kts 133°
2026-04-17 17:05 56.52834 9.23125 1731 ft 71 kts 129°
2026-04-17 17:06 56.52600 9.23929 1923 ft 76 kts 110°
2026-04-17 17:06 56.52573 9.24947 2101 ft 84 kts 98°
2026-04-17 17:06 56.52587 9.25990 2299 ft 85 kts 92°
2026-04-17 17:06 56.52545 9.27101 2500 ft 85 kts 115°
2026-04-17 17:07 56.52234 9.27961 2749 ft 81 kts 133°
2026-04-17 17:07 56.52041 9.28905 2987 ft 85 kts 102°
2026-04-17 17:07 56.51865 9.29940 3216 ft 86 kts 117°
2026-04-17 17:07 56.51735 9.30947 3538 ft 79 kts 106°
2026-04-17 17:08 56.51646 9.32028 3689 ft 93 kts 95°
2026-04-17 17:08 56.51639 9.33233 3890 ft 97 kts 94°
2026-04-17 17:08 56.51631 9.34461 4128 ft 97 kts 94°
2026-04-17 17:08 56.51622 9.35698 4372 ft 99 kts 94°
2026-04-17 17:09 56.51609 9.36944 4614 ft 100 kts 94°
2026-04-17 17:09 56.51595 9.38207 4849 ft 101 kts 94°
2026-04-17 17:09 56.51617 9.39464 5091 ft 103 kts 81°
2026-04-17 17:09 56.51767 9.40738 5338 ft 104 kts 79°
2026-04-17 17:10 56.51925 9.42021 5584 ft 104 kts 79°
2026-04-17 17:10 56.52128 9.43293 5822 ft 105 kts 75°
2026-04-17 17:10 56.52344 9.44547 6065 ft 106 kts 77°
2026-04-17 17:10 56.52404 9.45865 6316 ft 105 kts 94°
2026-04-17 17:11 56.52448 9.47191 6557 ft 107 kts 81°
2026-04-17 17:11 56.52622 9.48510 6790 ft 108 kts 79°
2026-04-17 17:11 56.52813 9.49827 7021 ft 108 kts 77°
2026-04-17 17:11 56.53022 9.51146 7254 ft 109 kts 77°
2026-04-17 17:12 56.53247 9.52434 7490 ft 109 kts 69°
2026-04-17 17:12 56.53578 9.53681 7724 ft 110 kts 66°
2026-04-17 17:12 56.53917 9.54927 7956 ft 111 kts 66°
2026-04-17 17:12 56.54258 9.56175 8195 ft 111 kts 66°
2026-04-17 17:13 56.54591 9.57379 8423 ft 111 kts 66°
2026-04-17 17:13 56.54939 9.58633 8659 ft 111 kts 66°
2026-04-17 17:13 56.55290 9.59892 8893 ft 112 kts 66°
2026-04-17 17:13 56.55642 9.61149 9120 ft 112 kts 66°
2026-04-17 17:14 56.56000 9.62413 9352 ft 113 kts 66°
2026-04-17 17:14 56.56361 9.63679 9593 ft 113 kts 66°
2026-04-17 17:14 56.56718 9.64934 9827 ft 113 kts 66°
2026-04-17 17:15 56.57522 9.67419 10282 ft 115 kts 62°
2026-04-17 17:15 56.57886 9.68703 10492 ft 114 kts 74°
2026-04-17 17:15 56.58142 9.70058 10704 ft 114 kts 76°
2026-04-17 17:15 56.58394 9.71426 10915 ft 114 kts 76°
2026-04-17 17:16 56.58648 9.72796 11140 ft 115 kts 76°
2026-04-17 17:16 56.58908 9.74213 11243 ft 126 kts 76°
2026-04-17 17:16 56.59156 9.75798 11245 ft 136 kts 86°
2026-04-17 17:16 56.59246 9.77555 11249 ft 143 kts 92°
2026-04-17 17:17 56.59290 9.79380 11255 ft 146 kts 92°
2026-04-17 17:17 56.59290 9.81235 11256 ft 147 kts 98°
2026-04-17 17:17 56.59204 9.83100 11251 ft 148 kts 100°
2026-04-17 17:17 56.59109 9.84945 11251 ft 149 kts 100°
2026-04-17 17:18 56.59012 9.86813 11247 ft 149 kts 100°
2026-04-17 17:18 56.58914 9.88684 11248 ft 149 kts 100°
2026-04-17 17:18 56.58808 9.90561 11239 ft 149 kts 99°
2026-04-17 17:18 56.58692 9.92428 11238 ft 149 kts 100°
2026-04-17 17:19 56.58576 9.94299 11240 ft 149 kts 100°
2026-04-17 17:19 56.58461 9.96176 11239 ft 149 kts 100°
2026-04-17 17:19 56.58344 9.98044 11239 ft 149 kts 100°
2026-04-17 17:19 56.58228 9.99916 11240 ft 149 kts 100°
2026-04-17 17:20 56.58113 10.01766 11244 ft 149 kts 100°
2026-04-17 17:20 56.57996 10.03641 11244 ft 150 kts 100°
2026-04-17 17:20 56.57880 10.05517 11244 ft 150 kts 100°
2026-04-17 17:20 56.57685 10.07363 11243 ft 148 kts 111°
2026-04-17 17:21 56.57344 10.09113 11241 ft 146 kts 117°
2026-04-17 17:21 56.56862 10.10722 11245 ft 145 kts 124°
2026-04-17 17:21 56.56348 10.12288 11245 ft 145 kts 125°
2026-04-17 17:21 56.55837 10.13838 11244 ft 145 kts 125°
2026-04-17 17:22 56.55332 10.15358 11154 ft 134 kts 127°
2026-04-17 17:22 56.54832 10.16854 10685 ft 141 kts 124°
2026-04-17 17:22 56.54385 10.18450 10257 ft 142 kts 122°
2026-04-17 17:22 56.53966 10.20086 9713 ft 148 kts 107°
2026-04-17 17:23 56.53826 10.21820 9330 ft 136 kts 128°
2026-04-17 17:23 56.52957 10.22357 8474 ft 144 kts 182°
2026-04-17 17:23 56.51958 10.22615 7779 ft 144 kts 171°
2026-04-17 17:23 56.51027 10.23107 7236 ft 138 kts 156°
2026-04-17 17:24 56.50188 10.23741 6718 ft 128 kts 169°
2026-04-17 17:24 56.49312 10.24234 5937 ft 137 kts 159°
2026-04-17 17:24 56.48450 10.24879 5160 ft 139 kts 161°
2026-04-17 17:24 56.47630 10.25950 4232 ft 147 kts 134°
2026-04-17 17:25 56.47091 10.27422 3649 ft 136 kts 116°
2026-04-17 17:25 56.46710 10.28920 3119 ft 126 kts 119°
2026-04-17 17:25 56.46288 10.30257 2759 ft 123 kts 128°
2026-04-17 17:25 56.45800 10.31514 2506 ft 120 kts 130°
2026-04-17 17:26 56.45285 10.32687 2247 ft 120 kts 134°
2026-04-17 17:26 56.44677 10.33821 2064 ft 129 kts 136°
2026-04-17 17:26 56.44036 10.34994 1860 ft 134 kts 139°
2026-04-17 17:26 56.43353 10.36095 1736 ft 130 kts 140°
2026-04-17 17:27 56.42682 10.37168 1666 ft 124 kts 141°
2026-04-17 17:27 56.42087 10.38141 1762 ft 115 kts 139°
2026-04-17 17:27 56.41505 10.39168 1698 ft 118 kts 137°
2026-04-17 17:27 56.40917 10.40161 1700 ft 114 kts 142°
2026-04-17 17:28 56.40300 10.41097 1660 ft 119 kts 141°
2026-04-17 17:28 56.39705 10.42137 1647 ft 122 kts 132°
2026-04-17 17:28 56.39300 10.43488 1648 ft 124 kts 112°
2026-04-17 17:28 56.38930 10.44923 1616 ft 125 kts 122°
2026-04-17 17:29 56.38496 10.46242 1701 ft 121 kts 126°
2026-04-17 17:29 56.38051 10.47527 1746 ft 122 kts 121°
2026-04-17 17:29 56.37686 10.48908 1819 ft 121 kts 114°
2026-04-17 17:29 56.37359 10.50328 1840 ft 124 kts 115°
2026-04-17 17:30 56.36999 10.51760 1826 ft 126 kts 119°
2026-04-17 17:30 56.36588 10.53161 1850 ft 126 kts 121°
2026-04-17 17:30 56.36168 10.54551 1833 ft 128 kts 121°
2026-04-17 17:30 56.35723 10.55944 1825 ft 129 kts 121°
2026-04-17 17:31 56.35264 10.57356 1751 ft 132 kts 124°
2026-04-17 17:31 56.34778 10.58742 1781 ft 126 kts 124°
2026-04-17 17:31 56.34305 10.60071 1783 ft 127 kts 127°
2026-04-17 17:31 56.33721 10.61288 1718 ft 129 kts 141°
2026-04-17 17:32 56.32946 10.61965 1730 ft 125 kts 167°
2026-04-17 17:32 56.32071 10.62128 1643 ft 129 kts 180°
2026-04-17 17:32 56.31173 10.62064 1574 ft 129 kts 182°
2026-04-17 17:32 56.30272 10.62090 1497 ft 130 kts 178°
2026-04-17 17:33 56.29396 10.61953 1481 ft 127 kts 191°
2026-04-17 17:33 56.28907 10.60897 1327 ft 116 kts 271°
2026-04-17 17:33 56.29159 10.59542 1132 ft 111 kts 287°
2026-04-17 17:33 56.29400 10.58291 1068 ft 100 kts 287°
2026-04-17 17:34 56.29652 10.57145 1039 ft 92 kts 308°
2026-04-17 17:34 56.30223 10.57003 943 ft 90 kts 28°
2026-04-17 17:34 56.30705 10.57702 682 ft 86 kts 82°
2026-04-17 17:34 56.30662 10.58717 298 ft 75 kts 102°
2026-04-17 17:35 56.30570 10.59601 122 ft 72 kts 100°
2026-04-17 17:35 56.30490 10.60374 81 ft 48 kts 101°
2026-04-17 17:35 56.30426 10.61027 85 ft 72 kts 101°
2026-04-17 17:35 56.30314 10.61967 312 ft 78 kts 107°
2026-04-17 17:36 56.30171 10.62945 568 ft 83 kts 101°
2026-04-17 17:36 56.29944 10.63889 808 ft 87 kts 147°
2026-04-17 17:36 56.29370 10.63902 1057 ft 87 kts 210°
2026-04-17 17:36 56.29068 10.62940 1259 ft 96 kts 265°
2026-04-17 17:37 56.28982 10.61730 1466 ft 95 kts 249°
2026-04-17 17:37 56.28721 10.60569 1517 ft 110 kts 246°
2026-04-17 17:37 56.28440 10.59204 1560 ft 116 kts 247°
2026-04-17 17:37 56.28135 10.57855 1641 ft 117 kts 244°
2026-04-17 17:38 56.27748 10.56673 1835 ft 111 kts 240°
2026-04-17 17:38 56.27388 10.55336 1835 ft 119 kts 242°
2026-04-17 17:38 56.27026 10.54006 1923 ft 118 kts 243°
2026-04-17 17:38 56.26664 10.52653 1950 ft 122 kts 242°
2026-04-17 17:39 56.26282 10.51266 1953 ft 125 kts 242°
2026-04-17 17:39 56.25892 10.49851 1960 ft 127 kts 242°
2026-04-17 17:39 56.25496 10.48420 1957 ft 128 kts 242°
2026-04-17 17:39 56.25107 10.47004 1954 ft 128 kts 242°
2026-04-17 17:40 56.24715 10.45572 1952 ft 127 kts 242°
2026-04-17 17:40 56.24323 10.44145 1952 ft 127 kts 242°
2026-04-17 17:40 56.23932 10.42722 1949 ft 127 kts 242°
2026-04-17 17:40 56.23543 10.41305 1959 ft 126 kts 242°
2026-04-17 17:41 56.23158 10.39910 1945 ft 126 kts 242°
2026-04-17 17:41 56.22766 10.38493 1951 ft 127 kts 242°
2026-04-17 17:41 56.22373 10.37075 1954 ft 127 kts 242°
2026-04-17 17:41 56.21981 10.35651 1957 ft 126 kts 242°
2026-04-17 17:42 56.21592 10.34236 1960 ft 127 kts 242°
2026-04-17 17:42 56.21201 10.32816 1959 ft 127 kts 242°
2026-04-17 17:42 56.20822 10.31384 1951 ft 127 kts 243°
2026-04-17 17:42 56.20297 10.30151 1950 ft 122 kts 219°
2026-04-17 17:43 56.19665 10.29204 1960 ft 118 kts 217°
2026-04-17 17:43 56.19027 10.28276 1960 ft 118 kts 217°
2026-04-17 17:43 56.18386 10.27356 1957 ft 117 kts 217°
2026-04-17 17:43 56.17752 10.26438 1952 ft 116 kts 217°
2026-04-17 17:44 56.17116 10.25531 1956 ft 117 kts 217°
2026-04-17 17:44 56.16692 10.24927 1956 ft 117 kts 217°
2026-04-17 17:44 56.16046 10.24068 1956 ft 117 kts 212°
2026-04-17 17:44 56.15327 10.23345 1908 ft 118 kts 203°
2026-04-17 17:45 56.14579 10.22820 1959 ft 112 kts 197°
2026-04-17 17:45 56.13802 10.22478 1918 ft 116 kts 189°
2026-04-17 17:45 56.13007 10.22346 1920 ft 114 kts 182°
2026-04-17 17:45 56.12221 10.22380 1920 ft 114 kts 174°
2026-04-17 17:46 56.11436 10.22599 1868 ft 115 kts 168°
2026-04-17 17:46 56.10673 10.22985 1851 ft 112 kts 163°
2026-04-17 17:46 56.09918 10.23372 1811 ft 114 kts 165°
2026-04-17 17:46 56.09157 10.23782 1797 ft 114 kts 163°
2026-04-17 17:47 56.08405 10.24184 1828 ft 113 kts 165°
2026-04-17 17:47 56.07636 10.24574 1791 ft 115 kts 163°
2026-04-17 17:47 56.06882 10.25031 1825 ft 111 kts 163°
2026-04-17 17:47 56.06147 10.25365 1867 ft 109 kts 167°
2026-04-17 17:48 56.05401 10.25671 1908 ft 110 kts 167°
2026-04-17 17:48 56.04646 10.25982 1920 ft 111 kts 168°
2026-04-17 17:48 56.03903 10.26250 2044 ft 105 kts 169°
2026-04-17 17:48 56.03151 10.26580 1991 ft 112 kts 160°
2026-04-17 17:49 56.02465 10.27258 2004 ft 115 kts 144°
2026-04-17 17:49 56.01866 10.28179 2050 ft 114 kts 139°
2026-04-17 17:49 56.01296 10.29147 2119 ft 112 kts 137°
2026-04-17 17:49 56.00754 10.30138 2165 ft 113 kts 136°
2026-04-17 17:50 56.00186 10.31172 2139 ft 118 kts 136°
2026-04-17 17:50 55.99624 10.32251 2150 ft 118 kts 134°
2026-04-17 17:50 55.99087 10.33289 2237 ft 111 kts 136°
2026-04-17 17:50 55.98572 10.34357 2220 ft 117 kts 130°
2026-04-17 17:51 55.98054 10.35499 2187 ft 119 kts 131°
2026-04-17 17:51 55.97527 10.36670 2112 ft 121 kts 129°
2026-04-17 17:51 55.97030 10.37856 2055 ft 118 kts 130°
2026-04-17 17:51 55.96486 10.39001 1900 ft 122 kts 136°
2026-04-17 17:52 55.95847 10.39932 1848 ft 118 kts 150°
2026-04-17 17:52 55.95112 10.40550 1780 ft 117 kts 160°
2026-04-17 17:52 55.94356 10.40820 1443 ft 109 kts 191°
2026-04-17 17:52 55.93759 10.40046 992 ft 113 kts 240°
2026-04-17 17:53 55.93876 10.38745 607 ft 109 kts 322°
2026-04-17 17:53 55.94488 10.38542 498 ft 81 kts
2026-04-17 17:53 55.95014 10.38790 380 ft 74 kts 33°
2026-04-17 17:53 55.95348 10.39422 236 ft 67 kts 60°
2026-04-17 17:54 55.95546 10.40162 138 ft 66 kts 68°
2026-04-17 17:54 55.95680 10.40917 32 ft 54 kts 76°
2026-04-17 17:54 55.95717 10.41211 30 ft 3 kts 123°
2026-04-17 17:54 55.95708 10.41200 30 ft 0 kts 263°
2026-04-17 17:55 55.95707 10.41196 30 ft 3 kts 242°
2026-04-17 17:56 55.95704 10.41092 31 ft 14 kts 258°
2026-04-17 17:56 55.95674 10.40896 32 ft 17 kts 255°
2026-04-17 17:56 55.95670 10.40746 31 ft 7 kts 319°
2026-04-17 17:56 55.95729 10.40714 30 ft 11 kts 353°
2026-04-17 17:57 55.95763 10.40682 31 ft 5 kts 238°
2026-04-17 17:57 55.95715 10.40711 30 ft 10 kts 167°
2026-04-17 17:57 55.95701 10.40718 30 ft 0 kts 167°
2026-04-17 17:59 55.95688 10.40719 30 ft 5 kts 184°
2026-04-17 18:00 55.95653 10.40710 31 ft 3 kts 188°
2026-04-17 18:00 55.95649 10.40716 31 ft 0 kts 79°
2026-04-17 18:00 55.95669 10.40844 32 ft 34 kts 75°
2026-04-17 18:00 55.95766 10.41493 139 ft 61 kts 76°
2026-04-17 18:01 55.95870 10.42285 329 ft 74 kts 72°
2026-04-17 18:01 55.96312 10.42695 494 ft 88 kts 352°
2026-04-17 18:01 55.96992 10.42404 555 ft 109 kts 338°
2026-04-17 18:01 55.97342 10.41303 663 ft 113 kts 253°
2026-04-17 18:02 55.97031 10.39958 652 ft 119 kts 241°
2026-04-17 18:02 55.96696 10.38749 613 ft 94 kts 247°
2026-04-17 18:02 55.96411 10.37849 569 ft 82 kts 206°
2026-04-17 18:02 55.95893 10.37931 374 ft 77 kts 145°
2026-04-17 18:03 55.95473 10.38437 271 ft 70 kts 141°
2026-04-17 18:03 55.95246 10.39093 168 ft 67 kts 67°
2026-04-17 18:03 55.95480 10.39793 100 ft 65 kts 68°
2026-04-17 18:03 55.95625 10.40560 48 ft 64 kts 74°
2026-04-17 18:04 55.95698 10.41060 31 ft 10 kts 65°
2026-04-17 18:04 55.95706 10.41094 31 ft 4 kts 37°
2026-04-17 18:04 55.95717 10.41030 31 ft 13 kts 248°
2026-04-17 18:04 55.95692 10.40865 32 ft 6 kts 273°
2026-04-17 18:05 55.95691 10.40861 33 ft 0 kts 256°
2026-04-17 18:05 55.95684 10.40823 31 ft 5 kts 241°
2026-04-17 18:05 55.95671 10.40744 31 ft 1 kts 251°
2026-04-17 18:05 55.95669 10.40730 31 ft 5 kts 245°
2026-04-17 18:06 55.95649 10.40725 29 ft 1 kts 68°
2026-04-17 18:06 55.95662 10.40805 34 ft 27 kts 75°
2026-04-17 18:06 55.95757 10.41399 109 ft 61 kts 73°
2026-04-17 18:06 55.95884 10.42161 308 ft 71 kts 78°
2026-04-17 18:07 55.96209 10.42784 523 ft 76 kts
2026-04-17 18:07 55.96738 10.42559 732 ft 81 kts 342°
2026-04-17 18:07 55.97293 10.42096 805 ft 99 kts 308°
2026-04-17 18:07 55.97370 10.40893 804 ft 104 kts 253°
2026-04-17 18:08 55.97118 10.39628 775 ft 109 kts 241°
2026-04-17 18:08 55.96756 10.38528 789 ft 90 kts 231°
2026-04-17 18:08 55.96311 10.37820 757 ft 85 kts 195°
2026-04-17 18:08 55.95802 10.38036 591 ft 70 kts 140°
2026-04-17 18:09 55.95455 10.38647 382 ft 70 kts 122°
2026-04-17 18:09 55.95434 10.39479 212 ft 66 kts 71°
2026-04-17 18:09 55.95572 10.40244 89 ft 65 kts 73°
2026-04-17 18:09 55.95695 10.40992 47 ft 67 kts 75°
2026-04-17 18:10 55.95814 10.41856 266 ft 76 kts 84°
2026-04-17 18:10 55.95681 10.42793 488 ft 84 kts 110°
2026-04-17 18:10 55.95470 10.43823 696 ft 88 kts 113°
2026-04-17 18:10 55.95223 10.44824 961 ft 87 kts 120°
2026-04-17 18:11 55.94924 10.45822 1148 ft 92 kts 116°
2026-04-17 18:11 55.94755 10.46904 1388 ft 90 kts 120°
2026-04-17 18:11 55.94730 10.46680 1357 ft 107 kts 52°
2026-04-17 18:11 55.94626 10.46573 1451 ft 105 kts 341°
2026-04-17 18:12 55.94972 10.47492 1505 ft 109 kts 85°
2026-04-17 18:12 55.94896 10.48767 1608 ft 107 kts 120°
2026-04-17 18:12 55.94544 10.50071 1407 ft 120 kts 121°
2026-04-17 18:12 55.94029 10.51198 1380 ft 114 kts 129°
2026-04-17 18:13 55.93537 10.52283 1410 ft 115 kts 134°
2026-04-17 18:13 55.92983 10.53335 1392 ft 115 kts 134°
2026-04-17 18:13 55.92620 10.54052 1366 ft 118 kts 134°
2026-04-17 18:13 55.92194 10.54866 1296 ft 124 kts 133°
2026-04-17 18:14 55.91629 10.56080 1113 ft 131 kts 127°
2026-04-17 18:14 55.91061 10.57358 974 ft 128 kts 143°
2026-04-17 18:14 55.90224 10.57684 855 ft 124 kts 179°
2026-04-17 18:14 55.89522 10.57782 656 ft 90 kts 146°
2026-04-17 18:15 55.89143 10.58559 388 ft 78 kts 105°
2026-04-17 18:15 55.89076 10.59446 228 ft 69 kts 95°
2026-04-17 18:15 55.89012 10.60295 74 ft 70 kts 98°
2026-04-17 18:15 55.88944 10.61027 3 ft 47 kts 99°
2026-04-17 18:16 55.88874 10.61726 55 ft 71 kts 104°
2026-04-17 18:16 55.88727 10.62590 326 ft 72 kts 111°
2026-04-17 18:16 55.88548 10.63425 595 ft 73 kts 112°
2026-04-17 18:16 55.88375 10.64316 806 ft 83 kts 105°
2026-04-17 18:17 55.88098 10.65281 948 ft 93 kts 149°
2026-04-17 18:17 55.86670 10.65075 1052 ft 111 kts 193°
2026-04-17 18:17 55.85946 10.64700 1145 ft 111 kts 195°
2026-04-17 18:18 55.85183 10.64295 1172 ft 116 kts 193°
2026-04-17 18:18 55.84388 10.63922 1186 ft 119 kts 194°
2026-04-17 18:18 55.83590 10.63523 1228 ft 118 kts 194°
2026-04-17 18:18 55.82988 10.62664 1375 ft 118 kts 243°
2026-04-17 18:19 55.82900 10.61179 1438 ft 122 kts 268°
2026-04-17 18:19 55.83075 10.59717 1558 ft 123 kts 297°
2026-04-17 18:19 55.83737 10.58747 1578 ft 129 kts 340°
2026-04-17 18:19 55.84619 10.58389 1643 ft 127 kts 353°
2026-04-17 18:20 55.85495 10.58266 1726 ft 128 kts
2026-04-17 18:20 55.86364 10.58586 1730 ft 130 kts 29°
2026-04-17 18:20 55.86924 10.59797 1715 ft 129 kts 71°
2026-04-17 18:20 55.87225 10.61249 1724 ft 121 kts 85°
2026-04-17 18:21 55.86851 10.62406 1777 ft 110 kts 135°
2026-04-17 18:21 55.86322 10.63464 1628 ft 121 kts 117°
2026-04-17 18:21 55.86427 10.64832 1735 ft 116 kts 46°
2026-04-17 18:21 55.87101 10.65491 1796 ft 117 kts
2026-04-17 18:22 55.87782 10.64756 1639 ft 117 kts 293°
2026-04-17 18:22 55.88045 10.63399 1193 ft 115 kts 285°
2026-04-17 18:22 55.88258 10.62248 1091 ft 91 kts 283°
2026-04-17 18:22 55.88385 10.61141 799 ft 92 kts 276°
2026-04-17 18:23 55.88479 10.60066 580 ft 87 kts 292°
2026-04-17 18:23 55.88932 10.59933 305 ft 74 kts 62°
2026-04-17 18:23 55.88969 10.60797 9 ft 65 kts 98°
2026-04-17 18:23 55.88910 10.61429 3 ft 56 kts 101°
2026-04-17 18:24 55.88814 10.62246 174 ft 71 kts 102°
2026-04-17 18:24 55.88667 10.63136 398 ft 81 kts 113°
2026-04-17 18:24 55.88273 10.63841 652 ft 87 kts 153°
2026-04-17 18:24 55.87746 10.64319 947 ft 86 kts 155°
2026-04-17 18:25 55.87430 10.65206 1189 ft 87 kts 107°
2026-04-17 18:25 55.87241 10.66284 1364 ft 94 kts 110°
2026-04-17 18:25 55.87036 10.67411 1491 ft 102 kts 110°
2026-04-17 18:25 55.86795 10.68688 1492 ft 114 kts 111°
2026-04-17 18:26 55.86534 10.70066 1491 ft 120 kts 111°
2026-04-17 18:26 55.86264 10.71499 1489 ft 123 kts 110°
2026-04-17 18:26 55.85996 10.72911 1491 ft 117 kts 111°
2026-04-17 18:26 55.85739 10.74265 1491 ft 114 kts 111°
2026-04-17 18:27 55.85487 10.75595 1494 ft 113 kts 111°
2026-04-17 18:27 55.85239 10.76909 1494 ft 113 kts 111°
2026-04-17 18:27 55.84989 10.78231 1492 ft 112 kts 111°
2026-04-17 18:27 55.84741 10.79541 1492 ft 111 kts 111°
2026-04-17 18:28 55.84493 10.80847 1492 ft 112 kts 111°
2026-04-17 18:28 55.84245 10.82162 1491 ft 112 kts 111°
2026-04-17 18:28 55.83999 10.83460 1490 ft 112 kts 111°
2026-04-17 18:28 55.83750 10.84769 1492 ft 112 kts 111°
2026-04-17 18:29 55.83501 10.86083 1492 ft 112 kts 111°
2026-04-17 18:29 55.83336 10.86948 1494 ft 112 kts 111°
2026-04-17 18:29 55.83087 10.88263 1495 ft 112 kts 111°
2026-04-17 18:29 55.82758 10.89993 1495 ft 111 kts 111°
2026-04-17 18:30 55.82510 10.91297 1497 ft 111 kts 111°
2026-04-17 18:30 55.82343 10.92175 1498 ft 111 kts 111°
2026-04-17 18:30 55.82098 10.93456 1496 ft 111 kts 111°
2026-04-17 18:30 55.81850 10.94755 1497 ft 111 kts 111°
2026-04-17 18:31 55.81603 10.96053 1497 ft 110 kts 111°
2026-04-17 18:31 55.81355 10.97344 1501 ft 111 kts 111°
2026-04-17 18:31 55.81107 10.98645 1498 ft 111 kts 111°
2026-04-17 18:31 55.80859 10.99944 1499 ft 110 kts 111°
2026-04-17 18:32 55.80614 11.01223 1491 ft 111 kts 111°
2026-04-17 18:32 55.80357 11.02573 1491 ft 119 kts 111°
2026-04-17 18:32 55.80089 11.03978 1490 ft 121 kts 111°
2026-04-17 18:32 55.79816 11.05403 1490 ft 122 kts 111°
2026-04-17 18:33 55.79541 11.06840 1491 ft 123 kts 111°
2026-04-17 18:33 55.79263 11.08287 1492 ft 123 kts 111°
2026-04-17 18:33 55.78985 11.09730 1493 ft 123 kts 111°
2026-04-17 18:33 55.78711 11.11155 1492 ft 124 kts 111°
2026-04-17 18:34 55.78433 11.12600 1490 ft 124 kts 112°
2026-04-17 18:34 55.78154 11.14051 1490 ft 124 kts 112°
2026-04-17 18:34 55.77874 11.15504 1491 ft 125 kts 111°
2026-04-17 18:34 55.77592 11.16965 1490 ft 125 kts 111°
2026-04-17 18:35 55.77312 11.18417 1492 ft 124 kts 111°
2026-04-17 18:35 55.77033 11.19862 1493 ft 124 kts 112°
2026-04-17 18:35 55.76750 11.21320 1493 ft 125 kts 111°
2026-04-17 18:35 55.76468 11.22780 1493 ft 125 kts 111°
2026-04-17 18:36 55.76190 11.24215 1493 ft 124 kts 111°
2026-04-17 18:36 55.75912 11.25647 1493 ft 124 kts 111°
2026-04-17 18:36 55.75631 11.27095 1493 ft 123 kts 111°
2026-04-17 18:36 55.75351 11.28538 1493 ft 124 kts 111°
2026-04-17 18:37 55.75071 11.29982 1490 ft 123 kts 111°
2026-04-17 18:37 55.74791 11.31421 1491 ft 123 kts 110°
2026-04-17 18:37 55.74512 11.32859 1491 ft 123 kts 110°
2026-04-17 18:37 55.74231 11.34299 1493 ft 124 kts 111°
2026-04-17 18:38 55.73892 11.35704 1491 ft 123 kts 121°
2026-04-17 18:38 55.73449 11.36985 1491 ft 123 kts 123°
2026-04-17 18:38 55.72992 11.38269 1493 ft 123 kts 123°
2026-04-17 18:38 55.72535 11.39552 1493 ft 123 kts 123°
2026-04-17 18:39 55.72080 11.40833 1506 ft 122 kts 123°
2026-04-17 18:39 55.71625 11.42108 1507 ft 122 kts 123°
2026-04-17 18:39 55.71163 11.43396 1475 ft 124 kts 123°
2026-04-17 18:39 55.70702 11.44679 1476 ft 123 kts 123°
2026-04-17 18:40 55.70248 11.45941 1479 ft 122 kts 123°
2026-04-17 18:40 55.69849 11.47056 1479 ft 122 kts 123°
2026-04-17 18:40 55.69395 11.48328 1480 ft 122 kts 123°
2026-04-17 18:40 55.68942 11.49602 1478 ft 122 kts 123°
2026-04-17 18:41 55.68491 11.50866 1482 ft 121 kts 123°
2026-04-17 18:41 55.68039 11.52137 1483 ft 122 kts 123°
2026-04-17 18:41 55.67584 11.53412 1483 ft 122 kts 123°
2026-04-17 18:41 55.67134 11.54673 1484 ft 122 kts 123°
2026-04-17 18:42 55.66679 11.55942 1479 ft 122 kts 123°
2026-04-17 18:42 55.66206 11.57181 1477 ft 121 kts 126°
2026-04-17 18:42 55.65720 11.58393 1480 ft 120 kts 126°
2026-04-17 18:42 55.65233 11.59602 1482 ft 121 kts 126°
2026-04-17 18:43 55.64746 11.60810 1468 ft 119 kts 127°
2026-04-17 18:43 55.64258 11.62015 1313 ft 121 kts 127°
2026-04-17 18:43 55.63766 11.63233 1182 ft 121 kts 127°
2026-04-17 18:43 55.63285 11.64432 1051 ft 121 kts 127°
2026-04-17 18:44 55.62803 11.65636 986 ft 116 kts 127°
2026-04-17 18:44 55.62346 11.66773 987 ft 111 kts 127°
2026-04-17 18:44 55.61900 11.67884 985 ft 109 kts 127°
2026-04-17 18:44 55.61467 11.68953 989 ft 108 kts 127°
2026-04-17 18:45 55.61028 11.70036 986 ft 108 kts 127°
2026-04-17 18:45 55.60598 11.71113 976 ft 107 kts 126°
2026-04-17 18:45 55.60187 11.72173 998 ft 102 kts 126°
2026-04-17 18:45 55.59776 11.73218 989 ft 104 kts 126°
2026-04-17 18:46 55.59359 11.74268 992 ft 105 kts 127°
2026-04-17 18:46 55.58940 11.75315 992 ft 106 kts 127°
2026-04-17 18:46 55.58511 11.76381 991 ft 106 kts 127°
2026-04-17 18:46 55.58082 11.77447 992 ft 107 kts 127°
2026-04-17 18:47 55.57651 11.78516 991 ft 107 kts 127°
2026-04-17 18:47 55.57218 11.79589 984 ft 107 kts 127°
2026-04-17 18:47 55.56791 11.80664 982 ft 109 kts 127°
2026-04-17 18:47 55.56358 11.81766 983 ft 109 kts 127°
2026-04-17 18:48 55.55920 11.82864 984 ft 109 kts 127°
2026-04-17 18:48 55.55487 11.83970 984 ft 109 kts 127°
2026-04-17 18:48 55.55052 11.85068 979 ft 109 kts 126°
2026-04-17 18:48 55.54629 11.86161 985 ft 107 kts 127°
2026-04-17 18:49 55.54209 11.87247 987 ft 108 kts 126°
2026-04-17 18:49 55.53780 11.88334 986 ft 108 kts 127°
2026-04-17 18:49 55.53353 11.89404 988 ft 108 kts 127°
2026-04-17 18:49 55.53022 11.90590 1007 ft 109 kts 109°
2026-04-17 18:50 55.52749 11.91849 1024 ft 109 kts 116°
2026-04-17 18:50 55.52450 11.93069 1050 ft 109 kts 119°
2026-04-17 18:50 55.52093 11.94259 1025 ft 109 kts 122°
2026-04-17 18:50 55.51693 11.95388 1008 ft 110 kts 123°
2026-04-17 18:51 55.51306 11.96514 1058 ft 105 kts 123°
2026-04-17 18:51 55.51035 11.97724 1043 ft 110 kts 91°
2026-04-17 18:51 55.51257 11.99035 1034 ft 113 kts 69°
2026-04-17 18:51 55.51552 12.00314 1052 ft 111 kts 73°
2026-04-17 18:52 55.51795 12.01617 1049 ft 113 kts 75°
2026-04-17 18:52 55.52048 12.02925 1036 ft 113 kts 73°
2026-04-17 18:52 55.52510 12.04072 997 ft 119 kts 46°
2026-04-17 18:52 55.53108 12.05041 1000 ft 116 kts 44°
2026-04-17 18:53 55.53723 12.05946 1059 ft 114 kts 40°
2026-04-17 18:53 55.54357 12.06781 1108 ft 112 kts 39°
2026-04-17 18:53 55.54998 12.07582 1129 ft 113 kts 38°
2026-04-17 18:53 55.55659 12.08368 1118 ft 116 kts 34°
2026-04-17 18:54 55.56378 12.09066 1108 ft 118 kts 28°
2026-04-17 18:54 55.57106 12.09676 1102 ft 116 kts 39°
2026-04-17 18:54 55.57759 12.10539 1044 ft 119 kts 40°
2026-04-17 18:54 55.58403 12.11387 1091 ft 115 kts 36°
2026-04-17 18:55 55.59092 12.12154 1029 ft 115 kts 36°
2026-04-17 18:55 55.59725 12.12848 931 ft 97 kts 34°
2026-04-17 18:55 55.60291 12.13409 796 ft 89 kts 31°
2026-04-17 18:55 55.60602 12.14203 662 ft 84 kts 103°
2026-04-17 18:56 55.60225 12.14861 514 ft 75 kts 173°
2026-04-17 18:56 55.59778 12.14444 326 ft 72 kts 206°
2026-04-17 18:56 55.59351 12.13992 272 ft 72 kts 208°
2026-04-17 18:56 55.58932 12.13542 154 ft 68 kts 206°
2026-04-17 18:57 55.58615 12.13209 138 ft 32 kts 211°
2026-04-17 18:57 55.58531 12.13113 138 ft 20 kts 207°
2026-04-17 18:57 55.58438 12.13008 136 ft 13 kts 229°
2026-04-17 18:57 55.58466 12.12846 136 ft 20 kts 297°
2026-04-17 18:58 55.58527 12.12783 136 ft 8 kts 27°
2026-04-17 18:58 55.58562 12.12819 136 ft 6 kts 31°
2026-04-17 18:58 55.58634 12.12897 135 ft 14 kts 30°
2026-04-17 18:58 55.58703 12.12965 136 ft 7 kts 35°
2026-04-17 18:59 55.58741 12.13009 136 ft 6 kts 29°
2026-04-17 18:59 55.58759 12.13023 136 ft 0 kts 14°
2026-04-17 18:59 55.58774 12.13022 136 ft 4 kts 345°
2026-04-17 18:59 55.58825 12.13003 136 ft 3 kts 343°
2026-04-17 19:00 55.58862 12.13027 136 ft 15 kts 30°
2026-04-17 19:00 55.58904 12.13057 136 ft 0 kts 345°
2026-04-17 19:00 55.58921 12.13025 136 ft 10 kts 274°
2026-04-17 19:01 55.58963 12.12897 136 ft 9 kts 334°
2026-04-17 19:01 55.59009 12.12861 136 ft 6 kts 345°
2026-04-17 19:01 55.59019 12.12842 136 ft 0 kts 232°